Time;durP1;ratioP1;P1;durP2;ratioP2;P2;SDS_P1;SDS_P2;PMS_P1;PMS_P2;Temp;Humidity;BMP_temperature;BMP_pressure;BME280_temperature;BME280_humidity;BME280_pressure;Samples;Min_cycle;Max_cycle;Signal;HPM_P1;HPM_P2
2024/01/19 00:01:12;;;;;;;;;;;0.90;99.90;;;;;;2622939;54;19946;-72
2024/01/19 00:03:45;;;;;;;;;;;0.90;99.90;;;;;;2619325;47;19966;-72
2024/01/19 00:06:14;;;;;;;;;;;0.90;99.90;;;;;;2617216;54;20453;-73
2024/01/19 00:08:44;;;;;;;;;;;0.80;99.90;;;;;;2616595;53;19957;-72
2024/01/19 00:11:15;;;;;;;;;;;0.80;99.90;;;;;;2614799;47;20448;-73
2024/01/19 00:13:45;;;;;;;;;;;0.80;99.90;;;;;;2617123;47;19947;-73
2024/01/19 00:16:14;;;;;;;;;;;0.70;99.90;;;;;;2615173;54;19935;-73
2024/01/19 00:18:47;;;;;;;;;;;0.70;99.90;;;;;;2616484;47;19973;-73
2024/01/19 00:21:17;;;;;;;;;;;0.70;99.90;;;;;;2620095;54;19983;-72
2024/01/19 00:23:47;;;;;;;;;;;0.80;99.90;;;;;;2618424;47;19938;-73
2024/01/19 00:26:17;;;;;;;;;;;0.80;99.90;;;;;;2615222;47;19942;-75
2024/01/19 00:28:47;;;;;;;;;;;0.80;99.90;;;;;;2615966;54;19958;-73
2024/01/19 00:31:17;;;;;;;;;;;0.80;99.90;;;;;;2615369;54;20437;-73
2024/01/19 00:33:49;;;;;;;;;;;0.80;99.90;;;;;;2615911;47;19953;-72
2024/01/19 00:36:19;;;;;;;;;;;0.80;99.90;;;;;;2616519;39;20373;-73
2024/01/19 00:38:48;;;;;;;;;;;0.80;99.90;;;;;;2616555;39;20365;-74
2024/01/19 00:41:18;;;;;;;;;;;0.80;99.90;;;;;;2615386;54;19938;-74
2024/01/19 00:43:48;;;;;;;;;;;1.00;99.90;;;;;;2616055;47;20438;-72
2024/01/19 00:46:18;;;;;;;;;;;0.90;99.90;;;;;;2615529;54;19946;-72
2024/01/19 00:48:51;;;;;;;;;;;0.80;99.90;;;;;;2615647;54;19946;-72
2024/01/19 00:51:20;;;;;;;;;;;0.80;99.90;;;;;;2616336;54;19999;-72
2024/01/19 00:53:50;;;;;;;;;;;0.80;99.90;;;;;;2617506;54;19953;-73
2024/01/19 00:56:20;;;;;;;;;;;0.80;99.90;;;;;;2621877;47;19947;-75
2024/01/19 00:58:50;;;;;;;;;;;0.80;99.90;;;;;;2624976;47;19939;-72
2024/01/19 01:01:19;;;;;;;;;;;0.80;99.90;;;;;;2622756;47;19961;-72
2024/01/19 01:03:51;;;;;;;;;;;0.80;99.90;;;;;;2621863;54;19986;-72
2024/01/19 01:06:21;;;;;;;;;;;0.80;99.90;;;;;;2624090;51;19977;-73
2024/01/19 01:08:51;;;;;;;;;;;0.90;99.90;;;;;;2624479;54;19942;-79
2024/01/19 01:11:20;;;;;;;;;;;1.00;99.90;;;;;;2614202;54;19959;-74
2024/01/19 01:13:50;;;;;;;;;;;0.90;99.90;;;;;;2615815;54;19973;-74
2024/01/19 01:16:20;;;;;;;;;;;0.90;99.90;;;;;;2614979;54;20453;-73
2024/01/19 01:18:52;;;;;;;;;;;0.80;99.90;;;;;;2616864;54;19947;-73
2024/01/19 01:21:22;;;;;;;;;;;0.70;99.90;;;;;;2615976;47;19957;-75
2024/01/19 01:23:51;;;;;;;;;;;0.70;99.90;;;;;;2615662;47;19935;-72
2024/01/19 01:26:21;;;;;;;;;;;0.70;99.90;;;;;;2614906;54;19939;-72
2024/01/19 01:28:51;;;;;;;;;;;0.80;99.90;;;;;;2616472;54;20056;-72
2024/01/19 01:31:20;;;;;;;;;;;0.80;99.90;;;;;;2614227;47;19947;-72
2024/01/19 01:33:53;;;;;;;;;;;0.80;99.90;;;;;;2615980;47;19939;-74
2024/01/19 01:36:22;;;;;;;;;;;0.80;99.90;;;;;;2615437;54;19938;-73
2024/01/19 01:38:52;;;;;;;;;;;0.80;99.90;;;;;;2615739;47;19939;-73
2024/01/19 01:41:22;;;;;;;;;;;0.90;99.90;;;;;;2614860;54;19969;-72
2024/01/19 01:43:52;;;;;;;;;;;0.90;99.90;;;;;;2615521;54;19977;-73
2024/01/19 01:46:21;;;;;;;;;;;0.90;99.90;;;;;;2615904;47;19947;-74
2024/01/19 01:48:53;;;;;;;;;;;0.90;99.90;;;;;;2616015;54;19951;-74
2024/01/19 01:51:23;;;;;;;;;;;0.90;99.90;;;;;;2615330;54;19946;-74
2024/01/19 01:53:53;;;;;;;;;;;0.90;99.90;;;;;;2615421;47;20438;-74
2024/01/19 01:56:23;;;;;;;;;;;0.90;99.90;;;;;;2613650;47;19947;-72
2024/01/19 01:58:52;;;;;;;;;;;1.00;99.90;;;;;;2614553;47;19946;-72
2024/01/19 02:01:22;;;;;;;;;;;0.90;99.90;;;;;;2616174;47;19935;-73
2024/01/19 02:03:56;;;;;;;;;;;0.90;99.90;;;;;;2617235;47;20465;-73
2024/01/19 02:06:26;;;;;;;;;;;0.90;99.90;;;;;;2620415;54;19941;-72
2024/01/19 02:08:56;;;;;;;;;;;0.90;99.90;;;;;;2615709;47;19954;-73
2024/01/19 02:11:25;;;;;;;;;;;0.90;99.90;;;;;;2614216;54;19951;-73
2024/01/19 02:13:55;;;;;;;;;;;0.80;99.90;;;;;;2614056;47;19958;-72
2024/01/19 02:16:25;;;;;;;;;;;0.80;99.90;;;;;;2614899;54;20450;-72
2024/01/19 02:18:58;;;;;;;;;;;0.80;99.90;;;;;;2615501;47;19952;-72
2024/01/19 02:21:27;;;;;;;;;;;0.80;99.90;;;;;;2614889;39;20334;-74
2024/01/19 02:24:01;;;;;;;;;;;0.70;99.90;;;;;;2615149;54;19934;-74
2024/01/19 02:26:35;;;;;;;;;;;0.70;99.90;;;;;;2615103;54;19954;-73
2024/01/19 02:29:05;;;;;;;;;;;0.70;99.90;;;;;;2615609;54;20063;-72
2024/01/19 02:31:35;;;;;;;;;;;0.70;99.90;;;;;;2616106;39;20357;-72
2024/01/19 02:34:05;;;;;;;;;;;0.70;99.90;;;;;;2615450;54;19998;-73
2024/01/19 02:36:35;;;;;;;;;;;0.70;99.90;;;;;;2615110;50;19968;-73
2024/01/19 02:39:05;;;;;;;;;;;0.70;99.90;;;;;;2616445;47;19951;-72
2024/01/19 02:41:37;;;;;;;;;;;0.60;99.90;;;;;;2616199;39;20377;-73
2024/01/19 02:44:07;;;;;;;;;;;0.60;99.90;;;;;;2616800;31;20455;-71
2024/01/19 02:46:38;;;;;;;;;;;0.60;99.90;;;;;;2615850;54;19958;-72
2024/01/19 02:49:08;;;;;;;;;;;0.50;99.90;;;;;;2619617;54;19950;-72
2024/01/19 02:51:38;;;;;;;;;;;0.50;99.90;;;;;;2624259;47;19968;-72
2024/01/19 02:54:07;;;;;;;;;;;0.60;99.90;;;;;;2622796;54;20426;-72
2024/01/19 02:56:40;;;;;;;;;;;0.60;99.90;;;;;;2616205;54;19962;-73
2024/01/19 02:59:10;;;;;;;;;;;0.60;99.90;;;;;;2616253;47;20071;-72
2024/01/19 03:01:39;;;;;;;;;;;0.60;99.90;;;;;;2614888;47;19945;-73
2024/01/19 03:04:09;;;;;;;;;;;0.60;99.90;;;;;;2616839;54;19954;-73
2024/01/19 03:06:39;;;;;;;;;;;0.50;99.90;;;;;;2616831;46;19939;-73
2024/01/19 03:09:09;;;;;;;;;;;0.50;99.90;;;;;;2614941;39;20354;-72
2024/01/19 03:11:41;;;;;;;;;;;0.60;99.90;;;;;;2615825;54;19950;-72
2024/01/19 03:14:11;;;;;;;;;;;0.50;99.90;;;;;;2616070;47;19961;-73
2024/01/19 03:16:42;;;;;;;;;;;0.50;99.90;;;;;;2621267;54;19950;-72
2024/01/19 03:19:12;;;;;;;;;;;0.50;99.90;;;;;;2618243;47;19946;-72
2024/01/19 03:21:42;;;;;;;;;;;0.50;99.90;;;;;;2616462;47;19957;-73
2024/01/19 03:24:11;;;;;;;;;;;0.50;99.90;;;;;;2615913;47;19950;-72
2024/01/19 03:26:43;;;;;;;;;;;0.40;99.90;;;;;;2616306;52;19943;-74
2024/01/19 03:29:13;;;;;;;;;;;0.40;99.90;;;;;;2615286;47;19946;-72
2024/01/19 03:31:43;;;;;;;;;;;0.40;99.90;;;;;;2615527;54;19947;-74
2024/01/19 03:34:13;;;;;;;;;;;0.50;99.90;;;;;;2615157;54;19954;-72
2024/01/19 03:36:42;;;;;;;;;;;0.40;99.90;;;;;;2615667;47;19939;-73
2024/01/19 03:39:12;;;;;;;;;;;0.40;99.90;;;;;;2615630;54;19946;-72
2024/01/19 03:41:44;;;;;;;;;;;0.40;99.90;;;;;;2616138;50;19946;-72
2024/01/19 03:44:14;;;;;;;;;;;0.40;99.90;;;;;;2616906;39;20434;-72
2024/01/19 03:46:43;;;;;;;;;;;0.40;99.90;;;;;;2615864;47;19946;-72
2024/01/19 03:49:13;;;;;;;;;;;0.40;99.90;;;;;;2615523;47;19942;-71
2024/01/19 03:51:57;;;;;;;;;;;0.40;99.90;;;;;;2623194;54;19957;-72
2024/01/19 03:54:27;;;;;;;;;;;0.30;99.90;;;;;;2616061;54;19950;-75
2024/01/19 03:57:00;;;;;;;;;;;0.30;99.90;;;;;;2620635;54;19953;-74
2024/01/19 03:59:29;;;;;;;;;;;0.20;99.90;;;;;;2619566;47;19987;-72
2024/01/19 04:01:59;;;;;;;;;;;0.20;99.90;;;;;;2620495;54;19953;-72
2024/01/19 04:04:29;;;;;;;;;;;0.20;99.90;;;;;;2621066;54;19950;-72
2024/01/19 04:06:59;;;;;;;;;;;0.20;99.90;;;;;;2624539;39;20526;-73
2024/01/19 04:09:28;;;;;;;;;;;0.40;99.90;;;;;;2620737;54;19958;-72
2024/01/19 04:12:01;;;;;;;;;;;1.10;99.90;;;;;;2619864;54;19955;-73
2024/01/19 04:14:30;;;;;;;;;;;0.10;99.90;;;;;;2618699;54;19946;-73
2024/01/19 04:17:00;;;;;;;;;;;0.10;99.90;;;;;;2622374;54;20006;-73
2024/01/19 04:19:29;;;;;;;;;;;0.10;99.90;;;;;;2622667;54;19983;-73
2024/01/19 04:21:59;;;;;;;;;;;0.60;99.90;;;;;;2621380;47;19953;-73
2024/01/19 04:24:29;;;;;;;;;;;0.00;99.90;;;;;;2621161;54;20583;-74
2024/01/19 04:27:01;;;;;;;;;;;0.00;99.90;;;;;;2622453;47;19949;-73
2024/01/19 04:29:31;;;;;;;;;;;0.00;99.90;;;;;;2622674;54;19947;-72
2024/01/19 04:32:01;;;;;;;;;;;0.00;99.90;;;;;;2622376;47;20028;-72
2024/01/19 04:34:30;;;;;;;;;;;-0.10;99.90;;;;;;2622456;47;19935;-73
2024/01/19 04:37:00;;;;;;;;;;;-0.20;99.90;;;;;;2622655;50;19939;-71
2024/01/19 04:39:30;;;;;;;;;;;-0.20;99.90;;;;;;2621384;47;19995;-74
2024/01/19 04:42:02;;;;;;;;;;;-0.30;99.90;;;;;;2618144;47;19957;-74
2024/01/19 04:44:31;;;;;;;;;;;-0.30;99.90;;;;;;2617437;39;20379;-74
2024/01/19 04:47:01;;;;;;;;;;;-0.30;99.90;;;;;;2619731;54;19946;-73
2024/01/19 04:49:31;;;;;;;;;;;-0.30;99.90;;;;;;2619967;47;19946;-73
2024/01/19 04:52:01;;;;;;;;;;;-0.40;99.90;;;;;;2617282;47;19958;-73
2024/01/19 04:54:30;;;;;;;;;;;-0.40;99.90;;;;;;2617729;54;19951;-72
2024/01/19 04:57:02;;;;;;;;;;;-0.50;99.90;;;;;;2620742;39;20346;-74
2024/01/19 04:59:32;;;;;;;;;;;-0.50;99.90;;;;;;2617411;47;19995;-72
2024/01/19 05:02:03;;;;;;;;;;;-0.30;99.90;;;;;;2619569;54;19939;-73
2024/01/19 05:04:32;;;;;;;;;;;-0.60;99.90;;;;;;2617594;54;19945;-74
2024/01/19 05:07:02;;;;;;;;;;;-0.60;99.90;;;;;;2614849;54;19967;-72
2024/01/19 05:09:31;;;;;;;;;;;-0.60;99.90;;;;;;2616048;54;19970;-72
2024/01/19 05:12:04;;;;;;;;;;;-0.60;99.90;;;;;;2618954;54;19950;-74
2024/01/19 05:14:33;;;;;;;;;;;-0.60;99.90;;;;;;2619137;39;20374;-73
2024/01/19 05:17:03;;;;;;;;;;;-0.60;99.90;;;;;;2616327;47;20026;-72
2024/01/19 05:19:33;;;;;;;;;;;-0.60;99.90;;;;;;2618405;54;19955;-74
2024/01/19 05:22:02;;;;;;;;;;;-0.70;99.90;;;;;;2618861;47;19943;-73
2024/01/19 05:24:32;;;;;;;;;;;-0.70;99.90;;;;;;2626143;54;19966;-73
2024/01/19 05:27:05;;;;;;;;;;;-0.80;99.90;;;;;;2617771;47;19955;-72
2024/01/19 05:29:34;;;;;;;;;;;-0.80;99.90;;;;;;2618502;54;19946;-74
2024/01/19 05:32:04;;;;;;;;;;;-0.80;99.90;;;;;;2618194;47;19951;-72
2024/01/19 05:34:33;;;;;;;;;;;-0.80;99.90;;;;;;2617614;47;19946;-72
2024/01/19 05:37:03;;;;;;;;;;;-0.90;99.90;;;;;;2618772;39;20489;-71
2024/01/19 05:39:33;;;;;;;;;;;-0.90;99.90;;;;;;2618315;54;19946;-73
2024/01/19 05:42:05;;;;;;;;;;;-0.90;99.90;;;;;;2618479;54;19942;-72
2024/01/19 05:44:37;;;;;;;;;;;-0.80;99.90;;;;;;2618891;47;19938;-72
2024/01/19 05:47:06;;;;;;;;;;;-0.80;99.90;;;;;;2619967;54;19998;-71
2024/01/19 05:49:36;;;;;;;;;;;-0.90;99.90;;;;;;2617609;47;20500;-72
2024/01/19 05:52:06;;;;;;;;;;;-0.90;99.90;;;;;;2615107;54;19935;-73
2024/01/19 05:54:36;;;;;;;;;;;-0.80;99.90;;;;;;2615122;49;19954;-71
2024/01/19 05:57:09;;;;;;;;;;;-0.80;99.90;;;;;;2615967;54;19938;-73
2024/01/19 05:59:38;;;;;;;;;;;-0.80;99.90;;;;;;2620097;54;19946;-74
2024/01/19 06:02:08;;;;;;;;;;;-0.80;99.90;;;;;;2620625;54;19975;-73
2024/01/19 06:04:41;;;;;;;;;;;-0.80;99.90;;;;;;2618327;47;19987;-74
2024/01/19 06:07:10;;;;;;;;;;;-0.80;99.90;;;;;;2618340;47;19991;-74
2024/01/19 06:09:40;;;;;;;;;;;-0.90;99.90;;;;;;2617303;47;19950;-74
2024/01/19 06:12:16;;;;;;;;;;;-0.90;99.90;;;;;;2618975;47;19954;-73
2024/01/19 06:14:45;;;;;;;;;;;-0.90;99.90;;;;;;2616734;39;20125;-72
2024/01/19 06:17:16;;;;;;;;;;;-1.00;99.90;;;;;;2596873;47;19959;-74
2024/01/19 06:19:46;;;;;;;;;;;-1.00;99.90;;;;;;2601628;39;20859;-73
2024/01/19 06:22:16;;;;;;;;;;;-1.00;99.90;;;;;;2600463;54;19946;-73
2024/01/19 06:24:45;;;;;;;;;;;-1.00;99.90;;;;;;2600081;47;19958;-73
2024/01/19 06:27:17;;;;;;;;;;;-1.00;99.90;;;;;;2597757;54;19943;-72
2024/01/19 06:29:49;;;;;;;;;;;-1.00;99.90;;;;;;2600671;54;19947;-74
2024/01/19 06:32:20;;;;;;;;;;;-1.00;99.90;;;;;;2615806;46;19949;-82
2024/01/19 06:34:50;;;;;;;;;;;-0.90;99.90;;;;;;2629476;47;19943;-84
2024/01/19 06:37:20;;;;;;;;;;;-1.00;99.90;;;;;;2630577;47;19949;-81
2024/01/19 06:39:50;;;;;;;;;;;-0.90;99.90;;;;;;2630854;46;19951;-82
2024/01/19 06:42:23;;;;;;;;;;;-0.90;99.90;;;;;;2630560;47;19954;-82
2024/01/19 06:44:53;;;;;;;;;;;0.30;99.90;;;;;;2630515;54;19943;-81
2024/01/19 06:47:23;;;;;;;;;;;-0.90;99.90;;;;;;2630702;54;19942;-81
2024/01/19 06:49:53;;;;;;;;;;;-0.90;99.90;;;;;;2629517;47;19943;-81
2024/01/19 06:52:23;;;;;;;;;;;-0.90;99.90;;;;;;2629807;46;19942;-80
2024/01/19 06:54:52;;;;;;;;;;;-0.90;99.90;;;;;;2630029;54;19970;-83
2024/01/19 06:57:25;;;;;;;;;;;-1.00;99.90;;;;;;2629375;54;19939;-80
2024/01/19 06:59:55;;;;;;;;;;;-1.00;99.90;;;;;;2629154;47;20482;-82
2024/01/19 07:02:25;;;;;;;;;;;-1.00;99.90;;;;;;2630976;54;19927;-81
2024/01/19 07:04:55;;;;;;;;;;;-1.10;99.90;;;;;;2631888;54;19951;-80
2024/01/19 07:07:25;;;;;;;;;;;-1.10;99.90;;;;;;2631754;31;20492;-80
2024/01/19 07:09:55;;;;;;;;;;;-1.20;99.90;;;;;;2630566;47;20440;-82
2024/01/19 07:12:28;;;;;;;;;;;-1.10;99.90;;;;;;2630220;47;19994;-82
2024/01/19 07:14:58;;;;;;;;;;;-1.10;99.90;;;;;;2629543;39;20181;-81
2024/01/19 07:17:28;;;;;;;;;;;-1.00;99.90;;;;;;2625517;54;19977;-79
2024/01/19 07:20:00;;;;;;;;;;;-1.00;99.90;;;;;;2625379;54;19935;-79
2024/01/19 07:22:30;;;;;;;;;;;-0.90;99.90;;;;;;2623720;54;19950;-77
2024/01/19 07:25:00;;;;;;;;;;;-0.90;99.90;;;;;;2622156;39;20053;-80
2024/01/19 07:27:33;;;;;;;;;;;-0.90;99.90;;;;;;2621884;54;19934;-78
2024/01/19 07:30:02;;;;;;;;;;;-0.90;99.90;;;;;;2620994;54;19946;-78
2024/01/19 07:32:33;;;;;;;;;;;-0.80;99.90;;;;;;2620905;47;19954;-80
2024/01/19 07:35:20;;;;;;;;;;;-0.80;99.90;;;;;;2621607;54;19947;-78
2024/01/19 07:37:50;;;;;;;;;;;-0.80;99.90;;;;;;2621341;54;19954;-78
2024/01/19 07:40:20;;;;;;;;;;;-0.70;99.90;;;;;;2620957;47;19947;-77
2024/01/19 07:42:52;;;;;;;;;;;-0.70;99.90;;;;;;2620677;46;19947;-78
2024/01/19 07:45:22;;;;;;;;;;;-0.60;99.90;;;;;;2620496;54;20588;-78
2024/01/19 07:47:52;;;;;;;;;;;-0.60;99.90;;;;;;2620967;47;20070;-78
2024/01/19 07:50:22;;;;;;;;;;;-0.60;99.90;;;;;;2623835;47;19985;-80
2024/01/19 07:52:53;;;;;;;;;;;-0.30;99.90;;;;;;2626813;46;19950;-82
2024/01/19 07:55:23;;;;;;;;;;;-0.60;99.90;;;;;;2627021;46;20171;-81
2024/01/19 07:57:55;;;;;;;;;;;-0.50;99.90;;;;;;2628782;47;19970;-79
2024/01/19 08:00:25;;;;;;;;;;;-0.60;99.90;;;;;;2628426;54;19946;-80
2024/01/19 08:02:55;;;;;;;;;;;-0.60;99.90;;;;;;2631769;54;19977;-78
2024/01/19 08:05:25;;;;;;;;;;;-0.60;99.90;;;;;;2627694;47;20041;-80
2024/01/19 08:07:55;;;;;;;;;;;-0.50;99.90;;;;;;2626662;54;19927;-81
2024/01/19 08:10:25;;;;;;;;;;;-0.60;99.90;;;;;;2624442;54;19963;-77
2024/01/19 08:12:59;;;;;;;;;;;-0.60;99.90;;;;;;2620194;54;19979;-77
2024/01/19 08:15:29;;;;;;;;;;;-0.70;99.90;;;;;;2619588;47;19997;-76
2024/01/19 08:17:58;;;;;;;;;;;-0.60;99.90;;;;;;2618693;54;19946;-77
2024/01/19 08:20:28;;;;;;;;;;;-0.60;99.90;;;;;;2618717;47;19953;-77
2024/01/19 08:22:59;;;;;;;;;;;0.60;99.90;;;;;;2619311;47;19950;-77
2024/01/19 08:25:29;;;;;;;;;;;-0.60;99.90;;;;;;2624019;47;19943;-75
2024/01/19 08:28:01;;;;;;;;;;;-0.60;99.90;;;;;;2618650;47;19958;-78
2024/01/19 08:30:31;;;;;;;;;;;-0.60;99.90;;;;;;2622015;47;19963;-79
2024/01/19 08:33:02;;;;;;;;;;;-0.50;99.90;;;;;;2622189;54;19946;-78
2024/01/19 08:38:15;;;;;;;;;;;-0.50;99.90;;;;;;2605168;39;20459;-78
2024/01/19 08:40:45;;;;;;;;;;;-0.40;99.90;;;;;;2619476;54;19946;-77
2024/01/19 08:43:18;;;;;;;;;;;-0.40;99.90;;;;;;2618808;47;20041;-78
2024/01/19 08:45:48;;;;;;;;;;;-0.20;99.90;;;;;;2621996;39;20397;-79
2024/01/19 08:48:18;;;;;;;;;;;0.30;99.90;;;;;;2620988;54;19957;-79
2024/01/19 08:50:48;;;;;;;;;;;-0.20;99.90;;;;;;2620477;54;19967;-78
2024/01/19 08:53:18;;;;;;;;;;;-0.20;99.90;;;;;;2619557;54;19950;-78
2024/01/19 08:55:48;;;;;;;;;;;-0.20;99.90;;;;;;2626678;54;19970;-78
2024/01/19 08:58:21;;;;;;;;;;;-0.10;99.90;;;;;;2631086;47;19978;-78
2024/01/19 09:00:51;;;;;;;;;;;-0.10;99.90;;;;;;2622263;47;19946;-78
2024/01/19 09:03:21;;;;;;;;;;;-0.10;99.90;;;;;;2618432;47;20535;-77
2024/01/19 09:05:51;;;;;;;;;;;-0.10;99.90;;;;;;2618266;54;19994;-77
2024/01/19 09:08:21;;;;;;;;;;;-0.10;99.90;;;;;;2622647;47;19986;-81
2024/01/19 09:10:51;;;;;;;;;;;0.00;99.90;;;;;;2623036;47;19998;-80
2024/01/19 09:13:24;;;;;;;;;;;0.10;99.90;;;;;;2628957;39;20534;-80
2024/01/19 09:15:56;;;;;;;;;;;0.10;99.90;;;;;;2627271;39;21007;-81
2024/01/19 09:18:26;;;;;;;;;;;0.10;99.90;;;;;;2621342;54;19946;-77
2024/01/19 09:20:56;;;;;;;;;;;0.10;99.90;;;;;;2620603;54;19946;-75
2024/01/19 09:23:26;;;;;;;;;;;0.20;99.90;;;;;;2626413;31;20465;-75
2024/01/19 09:25:56;;;;;;;;;;;0.20;99.90;;;;;;2624854;47;19990;-73
2024/01/19 09:28:28;;;;;;;;;;;0.20;99.90;;;;;;2615965;54;19947;-76
2024/01/19 09:30:58;;;;;;;;;;;0.20;99.90;;;;;;2616034;54;20059;-77
2024/01/19 09:33:28;;;;;;;;;;;0.20;99.90;;;;;;2617631;39;20356;-75
2024/01/19 09:35:58;;;;;;;;;;;0.10;99.90;;;;;;2617748;47;19950;-77
2024/01/19 09:38:28;;;;;;;;;;;0.10;99.90;;;;;;2618394;54;20429;-77
2024/01/19 09:41:01;;;;;;;;;;;0.10;99.90;;;;;;2617331;47;19998;-75
2024/01/19 09:43:35;;;;;;;;;;;0.20;99.90;;;;;;2620554;54;20517;-74
2024/01/19 09:46:07;;;;;;;;;;;1.10;99.90;;;;;;2619078;54;19999;-77
2024/01/19 09:48:43;;;;;;;;;;;0.30;99.90;;;;;;2618029;54;19953;-76
2024/01/19 09:51:13;;;;;;;;;;;0.30;99.90;;;;;;2619286;47;19953;-76
2024/01/19 09:53:49;;;;;;;;;;;0.40;99.90;;;;;;2617803;47;19977;-75
2024/01/19 09:56:19;;;;;;;;;;;0.30;99.90;;;;;;2618343;46;19954;-76
2024/01/19 09:58:52;;;;;;;;;;;0.60;99.90;;;;;;2618734;54;20037;-76
2024/01/19 10:01:22;;;;;;;;;;;0.40;99.90;;;;;;2618500;54;19946;-76
2024/01/19 10:03:58;;;;;;;;;;;1.50;99.90;;;;;;2616884;54;20681;-77
2024/01/19 10:06:29;;;;;;;;;;;0.30;99.90;;;;;;2607577;46;19970;-76
2024/01/19 10:09:00;;;;;;;;;;;0.30;99.90;;;;;;2613371;47;19951;-76
2024/01/19 10:11:31;;;;;;;;;;;0.40;99.90;;;;;;2611194;47;19999;-75
2024/01/19 10:14:04;;;;;;;;;;;0.40;99.90;;;;;;2609611;47;19960;-76
2024/01/19 10:16:34;;;;;;;;;;;0.40;99.90;;;;;;2612240;54;19973;-76
2024/01/19 10:19:05;;;;;;;;;;;0.40;99.90;;;;;;2608324;47;19953;-75
2024/01/19 10:21:34;;;;;;;;;;;0.50;99.90;;;;;;2610322;47;19954;-76
2024/01/19 10:24:15;;;;;;;;;;;0.60;99.90;;;;;;2615381;47;19950;-76
2024/01/19 10:26:46;;;;;;;;;;;0.60;99.90;;;;;;2615329;47;19994;-77
2024/01/19 10:29:19;;;;;;;;;;;0.70;99.90;;;;;;2621558;47;19951;-76
2024/01/19 10:31:49;;;;;;;;;;;0.70;99.90;;;;;;2620453;47;19958;-80
2024/01/19 10:34:20;;;;;;;;;;;0.80;99.90;;;;;;2628371;47;19949;-80
2024/01/19 10:36:51;;;;;;;;;;;0.80;99.90;;;;;;2618379;54;19957;-79
2024/01/19 10:39:21;;;;;;;;;;;0.90;99.90;;;;;;2617727;54;20071;-79
2024/01/19 10:41:52;;;;;;;;;;;0.90;99.90;;;;;;2619023;46;19947;-79
2024/01/19 10:44:25;;;;;;;;;;;1.00;99.90;;;;;;2618097;47;19966;-81
2024/01/19 10:46:57;;;;;;;;;;;2.10;99.90;;;;;;2616559;47;19980;-78
2024/01/19 10:49:27;;;;;;;;;;;1.20;99.90;;;;;;2613380;54;20034;-79
2024/01/19 10:51:57;;;;;;;;;;;1.30;99.90;;;;;;2611588;47;19950;-79
2024/01/19 10:54:27;;;;;;;;;;;1.30;99.90;;;;;;2612657;46;19966;-79
2024/01/19 10:57:06;;;;;;;;;;;1.40;99.90;;;;;;2615721;47;19950;-80
2024/01/19 10:59:39;;;;;;;;;;;1.40;99.90;;;;;;2623097;47;20011;-78
2024/01/19 11:02:09;;;;;;;;;;;1.50;99.90;;;;;;2620097;54;19951;-79
2024/01/19 11:04:39;;;;;;;;;;;1.80;99.90;;;;;;2621170;47;19950;-79
2024/01/19 11:07:10;;;;;;;;;;;1.70;99.90;;;;;;2625469;46;19955;-78
2024/01/19 11:09:40;;;;;;;;;;;1.80;99.90;;;;;;2611972;47;19957;-73
2024/01/19 11:12:11;;;;;;;;;;;1.80;99.90;;;;;;2613085;39;20141;-77
2024/01/19 11:14:46;;;;;;;;;;;2.90;99.90;;;;;;2610995;47;19950;-76
2024/01/19 11:17:17;;;;;;;;;;;1.90;99.90;;;;;;2610698;39;20426;-74
2024/01/19 11:19:46;;;;;;;;;;;1.90;99.90;;;;;;2612537;54;19957;-77
2024/01/19 11:22:16;;;;;;;;;;;2.00;99.90;;;;;;2621068;47;19947;-78
2024/01/19 11:24:48;;;;;;;;;;;1.90;99.90;;;;;;2621416;47;19958;-78
2024/01/19 11:27:23;;;;;;;;;;;2.00;99.90;;;;;;2621013;39;20345;-78
2024/01/19 11:30:02;;;;;;;;;;;2.10;99.90;;;;;;2618934;54;20752;-75
2024/01/19 11:32:32;;;;;;;;;;;2.20;99.90;;;;;;2620990;54;19927;-77
2024/01/19 11:35:02;;;;;;;;;;;2.30;99.90;;;;;;2629810;54;20461;-75
2024/01/19 11:37:45;;;;;;;;;;;2.50;99.90;;;;;;2623489;54;19994;-76
2024/01/19 11:40:30;;;;;;;;;;;2.60;99.90;;;;;;2617744;54;19934;-75
2024/01/19 11:43:01;;;;;;;;;;;2.80;99.90;;;;;;2618993;54;19942;-75
2024/01/19 11:45:43;;;;;;;;;;;2.90;99.90;;;;;;2619618;39;20353;-76
2024/01/19 11:48:13;;;;;;;;;;;3.00;99.90;;;;;;2620831;54;19947;-77
2024/01/19 11:50:43;;;;;;;;;;;2.90;99.90;;;;;;2622720;54;20006;-78
2024/01/19 11:53:14;;;;;;;;;;;2.90;99.90;;;;;;2621064;54;19958;-78
2024/01/19 11:55:45;;;;;;;;;;;3.00;99.90;;;;;;2620187;54;19950;-77
2024/01/19 11:58:34;;;;;;;;;;;2.80;99.90;;;;;;2619458;46;20019;-77
2024/01/19 12:01:12;;;;;;;;;;;2.80;99.90;;;;;;2620138;47;19950;-76
2024/01/19 12:03:42;;;;;;;;;;;2.90;99.90;;;;;;2620038;54;19991;-77
2024/01/19 12:06:12;;;;;;;;;;;2.90;99.90;;;;;;2617793;54;19946;-77
2024/01/19 12:08:43;;;;;;;;;;;2.90;99.90;;;;;;2616404;46;19947;-77
2024/01/19 12:11:16;;;;;;;;;;;2.90;99.90;;;;;;2616725;47;19977;-76
2024/01/19 12:13:50;;;;;;;;;;;2.90;99.90;;;;;;2617296;54;20075;-76
2024/01/19 12:16:33;;;;;;;;;;;2.80;99.90;;;;;;2617913;54;19950;-77
2024/01/19 12:19:02;;;;;;;;;;;2.90;99.90;;;;;;2618029;54;19942;-77
2024/01/19 12:21:32;;;;;;;;;;;3.10;99.90;;;;;;2616788;54;19977;-77
2024/01/19 12:24:02;;;;;;;;;;;2.90;99.90;;;;;;2616248;47;19974;-76
2024/01/19 12:26:32;;;;;;;;;;;2.70;99.90;;;;;;2616351;47;19954;-76
2024/01/19 12:29:04;;;;;;;;;;;2.70;99.90;;;;;;2616744;47;19952;-80
2024/01/19 12:31:37;;;;;;;;;;;2.80;99.90;;;;;;2617985;47;20079;-79
2024/01/19 12:34:15;;;;;;;;;;;2.90;99.90;;;;;;2620636;54;19949;-76
2024/01/19 12:36:45;;;;;;;;;;;3.00;99.90;;;;;;2626776;54;19938;-77
2024/01/19 12:39:17;;;;;;;;;;;3.10;99.90;;;;;;2618692;39;20377;-77
2024/01/19 12:41:59;;;;;;;;;;;3.10;99.90;;;;;;2618203;46;19954;-78
2024/01/19 12:44:29;;;;;;;;;;;3.20;99.90;;;;;;2617773;47;19946;-79
2024/01/19 12:47:04;;;;;;;;;;;3.20;99.90;;;;;;2620251;47;19947;-77
2024/01/19 12:49:34;;;;;;;;;;;3.10;99.90;;;;;;2620948;47;19953;-76
2024/01/19 12:52:14;;;;;;;;;;;3.10;99.90;;;;;;2617869;47;19947;-77
2024/01/19 12:54:45;;;;;;;;;;;3.10;99.90;;;;;;2618218;54;19957;-77
2024/01/19 12:57:18;;;;;;;;;;;3.00;99.90;;;;;;2614563;47;20010;-77
2024/01/19 12:59:48;;;;;;;;;;;3.00;99.90;;;;;;2610262;54;19958;-74
2024/01/19 13:02:21;;;;;;;;;;;3.00;99.90;;;;;;2611442;54;20038;-74
2024/01/19 13:04:51;;;;;;;;;;;3.00;99.90;;;;;;2612443;39;20544;-76
2024/01/19 13:07:23;;;;;;;;;;;3.60;99.90;;;;;;2610080;47;20461;-79
2024/01/19 13:10:02;;;;;;;;;;;3.00;99.90;;;;;;2617088;39;20330;-77
2024/01/19 13:12:33;;;;;;;;;;;3.00;99.90;;;;;;2610355;54;20063;-76
2024/01/19 13:15:06;;;;;;;;;;;2.90;99.90;;;;;;2611336;39;20633;-77
2024/01/19 13:17:42;;;;;;;;;;;2.90;99.90;;;;;;2610826;47;19958;-75
2024/01/19 13:20:13;;;;;;;;;;;2.90;99.90;;;;;;2607062;54;20065;-75
2024/01/19 13:22:43;;;;;;;;;;;3.00;99.90;;;;;;2606288;54;20069;-75
2024/01/19 13:25:14;;;;;;;;;;;3.10;99.90;;;;;;2605772;54;19946;-74
2024/01/19 13:27:44;;;;;;;;;;;3.10;99.90;;;;;;2611516;47;19966;-73
2024/01/19 13:30:15;;;;;;;;;;;3.20;99.90;;;;;;2617798;54;19986;-76
2024/01/19 13:32:48;;;;;;;;;;;4.50;99.90;;;;;;2617042;47;19998;-76
2024/01/19 13:35:18;;;;;;;;;;;3.20;99.90;;;;;;2614313;54;19954;-76
2024/01/19 13:37:48;;;;;;;;;;;3.20;99.90;;;;;;2617110;54;19955;-75
2024/01/19 13:40:18;;;;;;;;;;;3.20;99.90;;;;;;2616987;48;19943;-75
2024/01/19 13:42:48;;;;;;;;;;;3.20;99.90;;;;;;2617358;54;19946;-77
2024/01/19 13:45:18;;;;;;;;;;;3.20;99.90;;;;;;2617955;47;19994;-76
2024/01/19 13:47:50;;;;;;;;;;;3.20;99.90;;;;;;2628011;47;19946;-75
2024/01/19 13:50:20;;;;;;;;;;;2.00;99.90;;;;;;2625397;47;19973;-77
2024/01/19 13:52:50;;;;;;;;;;;3.60;99.90;;;;;;2617825;47;19945;-77
2024/01/19 13:55:20;;;;;;;;;;;3.70;99.90;;;;;;2619674;31;20427;-76
2024/01/19 13:57:50;;;;;;;;;;;3.70;99.90;;;;;;2620927;47;19947;-76
2024/01/19 14:00:20;;;;;;;;;;;3.90;99.90;;;;;;2619221;47;19950;-77
2024/01/19 14:02:53;;;;;;;;;;;3.60;99.90;;;;;;2616574;47;19947;-77
2024/01/19 14:05:23;;;;;;;;;;;3.50;99.90;;;;;;2616998;54;19969;-77
2024/01/19 14:07:54;;;;;;;;;;;3.50;99.90;;;;;;2617510;54;19938;-77
2024/01/19 14:10:27;;;;;;;;;;;3.40;99.90;;;;;;2617024;47;19965;-77
2024/01/19 14:12:57;;;;;;;;;;;3.40;99.90;;;;;;2620173;47;19946;-77
2024/01/19 14:15:27;;;;;;;;;;;4.00;99.90;;;;;;2620857;47;20026;-77
2024/01/19 14:18:04;;;;;;;;;;;3.50;99.90;;;;;;2620048;47;20469;-76
2024/01/19 14:20:34;;;;;;;;;;;3.40;99.90;;;;;;2619936;47;19954;-76
2024/01/19 14:23:04;;;;;;;;;;;3.40;99.90;;;;;;2619797;39;20118;-78
2024/01/19 14:25:34;;;;;;;;;;;3.40;99.90;;;;;;2618803;47;19946;-78
2024/01/19 14:28:04;;;;;;;;;;;3.40;99.90;;;;;;2618949;54;20032;-78
2024/01/19 14:30:34;;;;;;;;;;;3.40;99.90;;;;;;2620590;47;20480;-77
2024/01/19 14:33:07;;;;;;;;;;;3.40;99.90;;;;;;2621836;54;19953;-77
2024/01/19 14:35:37;;;;;;;;;;;3.40;99.90;;;;;;2621409;47;19946;-77
2024/01/19 14:38:07;;;;;;;;;;;3.40;99.90;;;;;;2619770;54;20062;-78
2024/01/19 14:40:37;;;;;;;;;;;3.30;99.90;;;;;;2621237;54;19946;-77
2024/01/19 14:43:07;;;;;;;;;;;3.30;99.90;;;;;;2623402;54;19947;-76
2024/01/19 14:45:37;;;;;;;;;;;3.30;99.90;;;;;;2620004;46;19939;-78
2024/01/19 14:48:11;;;;;;;;;;;3.30;99.90;;;;;;2620231;46;19958;-77
2024/01/19 14:50:42;;;;;;;;;;;3.20;99.90;;;;;;2618920;47;20011;-77